sensor_id;sensor_type;location;lat;lon;timestamp;P1;durP1;ratioP1;P2;durP2;ratioP2
37267;SDS011;23154;52.542;13.362;2023-12-22T00:00:31;14.93;;;3.45;;
37267;SDS011;23154;52.542;13.362;2023-12-22T00:02:57;18.90;;;3.40;;
37267;SDS011;23154;52.542;13.362;2023-12-22T00:05:23;20.63;;;3.97;;
37267;SDS011;23154;52.542;13.362;2023-12-22T00:07:51;14.45;;;3.47;;
37267;SDS011;23154;52.542;13.362;2023-12-22T00:10:16;19.05;;;3.70;;
37267;SDS011;23154;52.542;13.362;2023-12-22T00:12:42;18.75;;;3.33;;
37267;SDS011;23154;52.542;13.362;2023-12-22T00:15:09;19.73;;;3.60;;
37267;SDS011;23154;52.542;13.362;2023-12-22T00:17:35;17.00;;;3.47;;
37267;SDS011;23154;52.542;13.362;2023-12-22T00:20:01;14.93;;;3.63;;
37267;SDS011;23154;52.542;13.362;2023-12-22T00:22:28;24.08;;;4.25;;
37267;SDS011;23154;52.542;13.362;2023-12-22T00:24:55;16.77;;;3.67;;
37267;SDS011;23154;52.542;13.362;2023-12-22T00:27:21;23.58;;;4.07;;
37267;SDS011;23154;52.542;13.362;2023-12-22T00:29:47;21.13;;;3.92;;
37267;SDS011;23154;52.542;13.362;2023-12-22T00:32:13;20.13;;;4.28;;
37267;SDS011;23154;52.542;13.362;2023-12-22T00:34:39;17.50;;;4.32;;
37267;SDS011;23154;52.542;13.362;2023-12-22T00:37:05;29.40;;;5.25;;
37267;SDS011;23154;52.542;13.362;2023-12-22T00:39:31;24.20;;;5.07;;
37267;SDS011;23154;52.542;13.362;2023-12-22T00:41:57;26.58;;;5.10;;
37267;SDS011;23154;52.542;13.362;2023-12-22T00:44:23;21.20;;;5.03;;
37267;SDS011;23154;52.542;13.362;2023-12-22T00:46:52;30.10;;;4.80;;
37267;SDS011;23154;52.542;13.362;2023-12-22T00:49:18;18.10;;;4.20;;
37267;SDS011;23154;52.542;13.362;2023-12-22T00:51:46;19.73;;;4.10;;
37267;SDS011;23154;52.542;13.362;2023-12-22T00:54:12;19.23;;;5.10;;
37267;SDS011;23154;52.542;13.362;2023-12-22T00:56:38;26.67;;;4.15;;
37267;SDS011;23154;52.542;13.362;2023-12-22T00:59:04;25.23;;;4.85;;
37267;SDS011;23154;52.542;13.362;2023-12-22T01:01:30;18.10;;;3.78;;
37267;SDS011;23154;52.542;13.362;2023-12-22T01:03:56;26.88;;;4.30;;
37267;SDS011;23154;52.542;13.362;2023-12-22T01:06:22;26.33;;;4.75;;
37267;SDS011;23154;52.542;13.362;2023-12-22T01:08:48;24.05;;;4.47;;
37267;SDS011;23154;52.542;13.362;2023-12-22T01:11:16;23.80;;;4.00;;
37267;SDS011;23154;52.542;13.362;2023-12-22T01:13:42;24.95;;;5.10;;
37267;SDS011;23154;52.542;13.362;2023-12-22T01:16:09;29.55;;;4.32;;
37267;SDS011;23154;52.542;13.362;2023-12-22T01:18:35;23.08;;;3.88;;
37267;SDS011;23154;52.542;13.362;2023-12-22T01:21:01;23.73;;;4.63;;
37267;SDS011;23154;52.542;13.362;2023-12-22T01:23:27;17.13;;;3.95;;
37267;SDS011;23154;52.542;13.362;2023-12-22T01:25:53;27.27;;;4.40;;
37267;SDS011;23154;52.542;13.362;2023-12-22T01:28:19;19.00;;;3.65;;
37267;SDS011;23154;52.542;13.362;2023-12-22T01:30:45;24.17;;;4.70;;
37267;SDS011;23154;52.542;13.362;2023-12-22T01:33:11;30.02;;;4.55;;
37267;SDS011;23154;52.542;13.362;2023-12-22T01:35:37;21.92;;;4.60;;
37267;SDS011;23154;52.542;13.362;2023-12-22T01:38:03;20.70;;;3.25;;
37267;SDS011;23154;52.542;13.362;2023-12-22T01:40:29;26.00;;;3.92;;
37267;SDS011;23154;52.542;13.362;2023-12-22T01:42:55;23.10;;;4.30;;
37267;SDS011;23154;52.542;13.362;2023-12-22T01:45:21;28.48;;;4.00;;
37267;SDS011;23154;52.542;13.362;2023-12-22T01:47:47;21.48;;;3.60;;
37267;SDS011;23154;52.542;13.362;2023-12-22T01:50:13;20.88;;;4.00;;
37267;SDS011;23154;52.542;13.362;2023-12-22T01:52:40;23.13;;;3.80;;
37267;SDS011;23154;52.542;13.362;2023-12-22T01:55:07;21.42;;;3.28;;
37267;SDS011;23154;52.542;13.362;2023-12-22T01:57:36;24.38;;;3.83;;
37267;SDS011;23154;52.542;13.362;2023-12-22T02:00:02;19.77;;;3.45;;
37267;SDS011;23154;52.542;13.362;2023-12-22T02:02:29;20.15;;;3.63;;
37267;SDS011;23154;52.542;13.362;2023-12-22T02:04:55;24.20;;;4.15;;
37267;SDS011;23154;52.542;13.362;2023-12-22T02:07:21;26.15;;;4.32;;
37267;SDS011;23154;52.542;13.362;2023-12-22T02:09:47;27.42;;;4.40;;
37267;SDS011;23154;52.542;13.362;2023-12-22T02:12:13;23.02;;;4.57;;
37267;SDS011;23154;52.542;13.362;2023-12-22T02:14:39;24.95;;;4.13;;
37267;SDS011;23154;52.542;13.362;2023-12-22T02:17:08;24.27;;;4.25;;
37267;SDS011;23154;52.542;13.362;2023-12-22T02:19:42;23.60;;;3.60;;
37267;SDS011;23154;52.542;13.362;2023-12-22T02:22:10;22.08;;;3.75;;
37267;SDS011;23154;52.542;13.362;2023-12-22T02:24:37;21.55;;;4.35;;
37267;SDS011;23154;52.542;13.362;2023-12-22T02:29:51;22.02;;;3.70;;
37267;SDS011;23154;52.542;13.362;2023-12-22T02:32:22;19.45;;;3.60;;
37267;SDS011;23154;52.542;13.362;2023-12-22T02:34:49;23.38;;;4.28;;
37267;SDS011;23154;52.542;13.362;2023-12-22T02:37:16;17.85;;;3.40;;
37267;SDS011;23154;52.542;13.362;2023-12-22T02:39:43;23.30;;;4.10;;
37267;SDS011;23154;52.542;13.362;2023-12-22T02:42:09;18.48;;;4.28;;
37267;SDS011;23154;52.542;13.362;2023-12-22T02:44:35;18.42;;;3.75;;
37267;SDS011;23154;52.542;13.362;2023-12-22T02:47:01;24.33;;;4.22;;
37267;SDS011;23154;52.542;13.362;2023-12-22T02:49:27;22.83;;;3.60;;
37267;SDS011;23154;52.542;13.362;2023-12-22T02:51:53;19.30;;;3.58;;
37267;SDS011;23154;52.542;13.362;2023-12-22T02:54:19;18.70;;;3.53;;
37267;SDS011;23154;52.542;13.362;2023-12-22T02:56:46;21.70;;;3.38;;
37267;SDS011;23154;52.542;13.362;2023-12-22T02:59:12;18.45;;;3.25;;
37267;SDS011;23154;52.542;13.362;2023-12-22T03:01:38;20.85;;;3.20;;
37267;SDS011;23154;52.542;13.362;2023-12-22T03:04:04;16.83;;;3.47;;
37267;SDS011;23154;52.542;13.362;2023-12-22T03:06:30;19.00;;;3.28;;
37267;SDS011;23154;52.542;13.362;2023-12-22T03:08:56;17.92;;;3.10;;
37267;SDS011;23154;52.542;13.362;2023-12-22T03:11:22;20.40;;;3.50;;
37267;SDS011;23154;52.542;13.362;2023-12-22T03:13:48;13.45;;;2.70;;
37267;SDS011;23154;52.542;13.362;2023-12-22T03:16:14;16.83;;;3.00;;
37267;SDS011;23154;52.542;13.362;2023-12-22T03:18:40;17.13;;;2.78;;
37267;SDS011;23154;52.542;13.362;2023-12-22T03:21:06;16.42;;;2.90;;
37267;SDS011;23154;52.542;13.362;2023-12-22T03:23:32;14.32;;;2.63;;
37267;SDS011;23154;52.542;13.362;2023-12-22T03:26:02;15.38;;;2.83;;
37267;SDS011;23154;52.542;13.362;2023-12-22T03:28:28;17.95;;;2.80;;
37267;SDS011;23154;52.542;13.362;2023-12-22T03:30:54;16.45;;;3.20;;
37267;SDS011;23154;52.542;13.362;2023-12-22T03:33:20;15.98;;;2.85;;
37267;SDS011;23154;52.542;13.362;2023-12-22T03:35:46;17.75;;;3.30;;
37267;SDS011;23154;52.542;13.362;2023-12-22T03:38:12;16.45;;;2.70;;
37267;SDS011;23154;52.542;13.362;2023-12-22T03:40:38;19.30;;;2.95;;
37267;SDS011;23154;52.542;13.362;2023-12-22T03:43:04;17.38;;;3.30;;
37267;SDS011;23154;52.542;13.362;2023-12-22T03:45:30;17.73;;;2.85;;
37267;SDS011;23154;52.542;13.362;2023-12-22T03:47:56;18.95;;;2.97;;
37267;SDS011;23154;52.542;13.362;2023-12-22T03:50:22;14.05;;;2.85;;
37267;SDS011;23154;52.542;13.362;2023-12-22T03:52:48;23.65;;;2.90;;
37267;SDS011;23154;52.542;13.362;2023-12-22T03:55:14;15.75;;;3.17;;
37267;SDS011;23154;52.542;13.362;2023-12-22T03:57:40;22.38;;;3.22;;
37267;SDS011;23154;52.542;13.362;2023-12-22T04:00:07;18.95;;;3.17;;
37267;SDS011;23154;52.542;13.362;2023-12-22T04:02:33;20.30;;;3.65;;
37267;SDS011;23154;52.542;13.362;2023-12-22T04:04:59;12.23;;;2.53;;
37267;SDS011;23154;52.542;13.362;2023-12-22T04:07:25;12.32;;;2.42;;
37267;SDS011;23154;52.542;13.362;2023-12-22T04:09:51;14.60;;;2.40;;
37267;SDS011;23154;52.542;13.362;2023-12-22T04:12:17;12.18;;;2.10;;
37267;SDS011;23154;52.542;13.362;2023-12-22T04:14:43;8.98;;;1.85;;
37267;SDS011;23154;52.542;13.362;2023-12-22T04:17:09;11.20;;;2.15;;
37267;SDS011;23154;52.542;13.362;2023-12-22T04:19:36;10.40;;;2.08;;
37267;SDS011;23154;52.542;13.362;2023-12-22T04:22:02;7.78;;;1.85;;
37267;SDS011;23154;52.542;13.362;2023-12-22T04:24:28;8.93;;;1.67;;
37267;SDS011;23154;52.542;13.362;2023-12-22T04:26:54;9.85;;;1.98;;
37267;SDS011;23154;52.542;13.362;2023-12-22T04:29:20;11.60;;;2.15;;
37267;SDS011;23154;52.542;13.362;2023-12-22T04:31:46;11.57;;;1.90;;
37267;SDS011;23154;52.542;13.362;2023-12-22T04:34:13;7.30;;;1.75;;
37267;SDS011;23154;52.542;13.362;2023-12-22T04:36:40;10.90;;;1.85;;
37267;SDS011;23154;52.542;13.362;2023-12-22T04:39:06;14.27;;;2.13;;
37267;SDS011;23154;52.542;13.362;2023-12-22T04:41:32;9.98;;;1.85;;
37267;SDS011;23154;52.542;13.362;2023-12-22T04:43:58;11.93;;;1.83;;
37267;SDS011;23154;52.542;13.362;2023-12-22T04:46:28;13.88;;;2.30;;
37267;SDS011;23154;52.542;13.362;2023-12-22T04:48:55;11.00;;;2.22;;
37267;SDS011;23154;52.542;13.362;2023-12-22T04:51:21;13.48;;;2.03;;
37267;SDS011;23154;52.542;13.362;2023-12-22T04:53:47;13.73;;;2.20;;
37267;SDS011;23154;52.542;13.362;2023-12-22T04:56:13;11.02;;;1.85;;
37267;SDS011;23154;52.542;13.362;2023-12-22T04:58:39;6.55;;;1.63;;
37267;SDS011;23154;52.542;13.362;2023-12-22T05:01:05;14.20;;;1.92;;
37267;SDS011;23154;52.542;13.362;2023-12-22T05:03:31;13.98;;;2.47;;
37267;SDS011;23154;52.542;13.362;2023-12-22T05:05:57;12.15;;;2.75;;
37267;SDS011;23154;52.542;13.362;2023-12-22T05:08:23;11.82;;;2.00;;
37267;SDS011;23154;52.542;13.362;2023-12-22T05:10:49;9.93;;;1.48;;
37267;SDS011;23154;52.542;13.362;2023-12-22T05:13:15;9.80;;;1.58;;
37267;SDS011;23154;52.542;13.362;2023-12-22T05:15:41;9.60;;;1.33;;
37267;SDS011;23154;52.542;13.362;2023-12-22T05:18:07;8.57;;;1.55;;
37267;SDS011;23154;52.542;13.362;2023-12-22T05:20:33;9.00;;;1.80;;
37267;SDS011;23154;52.542;13.362;2023-12-22T05:22:59;8.60;;;1.80;;
37267;SDS011;23154;52.542;13.362;2023-12-22T05:25:25;11.32;;;1.60;;
37267;SDS011;23154;52.542;13.362;2023-12-22T05:27:51;6.65;;;1.60;;
37267;SDS011;23154;52.542;13.362;2023-12-22T05:30:17;9.02;;;1.65;;
37267;SDS011;23154;52.542;13.362;2023-12-22T05:32:44;8.73;;;1.80;;
37267;SDS011;23154;52.542;13.362;2023-12-22T05:35:10;7.72;;;1.63;;
37267;SDS011;23154;52.542;13.362;2023-12-22T05:37:36;6.10;;;1.60;;
37267;SDS011;23154;52.542;13.362;2023-12-22T05:40:02;8.18;;;1.40;;
37267;SDS011;23154;52.542;13.362;2023-12-22T05:42:28;12.52;;;2.20;;
37267;SDS011;23154;52.542;13.362;2023-12-22T05:44:54;6.28;;;1.70;;
37267;SDS011;23154;52.542;13.362;2023-12-22T05:47:20;7.72;;;1.65;;
37267;SDS011;23154;52.542;13.362;2023-12-22T05:49:46;13.07;;;1.95;;
37267;SDS011;23154;52.542;13.362;2023-12-22T05:52:12;9.88;;;1.83;;
37267;SDS011;23154;52.542;13.362;2023-12-22T05:54:38;13.32;;;2.50;;
37267;SDS011;23154;52.542;13.362;2023-12-22T05:57:04;11.15;;;2.05;;
37267;SDS011;23154;52.542;13.362;2023-12-22T05:59:31;12.38;;;2.13;;
37267;SDS011;23154;52.542;13.362;2023-12-22T06:01:58;10.75;;;1.90;;
37267;SDS011;23154;52.542;13.362;2023-12-22T06:04:25;14.02;;;2.20;;
37267;SDS011;23154;52.542;13.362;2023-12-22T06:06:51;7.63;;;1.67;;
37267;SDS011;23154;52.542;13.362;2023-12-22T06:09:17;9.60;;;1.75;;
37267;SDS011;23154;52.542;13.362;2023-12-22T06:11:47;8.30;;;1.88;;
37267;SDS011;23154;52.542;13.362;2023-12-22T06:14:14;12.35;;;2.25;;
37267;SDS011;23154;52.542;13.362;2023-12-22T06:16:40;9.85;;;1.90;;
37267;SDS011;23154;52.542;13.362;2023-12-22T06:19:06;15.30;;;2.17;;
37267;SDS011;23154;52.542;13.362;2023-12-22T06:21:32;10.18;;;1.90;;
37267;SDS011;23154;52.542;13.362;2023-12-22T06:23:58;11.15;;;1.95;;
37267;SDS011;23154;52.542;13.362;2023-12-22T06:26:24;13.73;;;1.90;;
37267;SDS011;23154;52.542;13.362;2023-12-22T06:28:50;14.82;;;2.35;;
37267;SDS011;23154;52.542;13.362;2023-12-22T06:31:16;13.10;;;2.38;;
37267;SDS011;23154;52.542;13.362;2023-12-22T06:33:46;11.45;;;1.75;;
37267;SDS011;23154;52.542;13.362;2023-12-22T06:36:22;10.60;;;2.05;;
37267;SDS011;23154;52.542;13.362;2023-12-22T06:38:48;9.45;;;1.63;;
37267;SDS011;23154;52.542;13.362;2023-12-22T06:41:19;12.27;;;1.95;;
37267;SDS011;23154;52.542;13.362;2023-12-22T06:43:45;10.93;;;1.45;;
37267;SDS011;23154;52.542;13.362;2023-12-22T06:46:15;9.82;;;1.77;;
37267;SDS011;23154;52.542;13.362;2023-12-22T06:48:41;5.28;;;1.35;;
37267;SDS011;23154;52.542;13.362;2023-12-22T06:51:07;14.13;;;1.77;;
37267;SDS011;23154;52.542;13.362;2023-12-22T06:53:33;13.32;;;3.60;;
37267;SDS011;23154;52.542;13.362;2023-12-22T06:55:59;10.75;;;2.30;;
37267;SDS011;23154;52.542;13.362;2023-12-22T06:58:25;8.93;;;1.63;;
37267;SDS011;23154;52.542;13.362;2023-12-22T07:00:52;8.35;;;1.95;;
37267;SDS011;23154;52.542;13.362;2023-12-22T07:03:21;9.83;;;1.87;;
37267;SDS011;23154;52.542;13.362;2023-12-22T07:05:47;15.38;;;2.08;;
37267;SDS011;23154;52.542;13.362;2023-12-22T07:08:14;14.15;;;2.10;;
37267;SDS011;23154;52.542;13.362;2023-12-22T07:10:40;10.20;;;2.00;;
37267;SDS011;23154;52.542;13.362;2023-12-22T07:13:06;11.23;;;2.20;;
37267;SDS011;23154;52.542;13.362;2023-12-22T07:15:32;13.13;;;2.10;;
37267;SDS011;23154;52.542;13.362;2023-12-22T07:17:58;9.95;;;1.80;;
37267;SDS011;23154;52.542;13.362;2023-12-22T07:20:24;10.48;;;1.88;;
37267;SDS011;23154;52.542;13.362;2023-12-22T07:22:50;10.48;;;1.80;;
37267;SDS011;23154;52.542;13.362;2023-12-22T07:25:16;9.95;;;2.40;;
37267;SDS011;23154;52.542;13.362;2023-12-22T07:27:44;13.23;;;2.33;;
37267;SDS011;23154;52.542;13.362;2023-12-22T07:30:11;12.00;;;2.42;;
37267;SDS011;23154;52.542;13.362;2023-12-22T07:32:40;15.10;;;2.55;;
37267;SDS011;23154;52.542;13.362;2023-12-22T07:35:06;12.90;;;2.58;;
37267;SDS011;23154;52.542;13.362;2023-12-22T07:37:35;14.13;;;2.70;;
37267;SDS011;23154;52.542;13.362;2023-12-22T07:40:01;15.00;;;2.40;;
37267;SDS011;23154;52.542;13.362;2023-12-22T07:42:28;16.35;;;2.45;;
37267;SDS011;23154;52.542;13.362;2023-12-22T07:44:54;12.65;;;1.88;;
37267;SDS011;23154;52.542;13.362;2023-12-22T07:47:20;18.05;;;2.70;;
37267;SDS011;23154;52.542;13.362;2023-12-22T07:49:46;18.27;;;2.45;;
37267;SDS011;23154;52.542;13.362;2023-12-22T07:52:14;14.35;;;2.38;;
37267;SDS011;23154;52.542;13.362;2023-12-22T07:54:40;16.27;;;2.00;;
37267;SDS011;23154;52.542;13.362;2023-12-22T07:57:06;16.60;;;2.30;;
37267;SDS011;23154;52.542;13.362;2023-12-22T07:59:32;14.55;;;2.08;;
37267;SDS011;23154;52.542;13.362;2023-12-22T08:01:59;9.77;;;1.90;;
37267;SDS011;23154;52.542;13.362;2023-12-22T08:04:25;15.85;;;2.70;;
37267;SDS011;23154;52.542;13.362;2023-12-22T08:06:51;19.17;;;2.85;;
37267;SDS011;23154;52.542;13.362;2023-12-22T08:09:17;14.90;;;1.85;;
37267;SDS011;23154;52.542;13.362;2023-12-22T08:11:43;13.55;;;2.22;;
37267;SDS011;23154;52.542;13.362;2023-12-22T08:14:11;15.10;;;2.38;;
37267;SDS011;23154;52.542;13.362;2023-12-22T08:16:37;15.43;;;2.55;;
37267;SDS011;23154;52.542;13.362;2023-12-22T08:19:03;9.02;;;1.85;;
37267;SDS011;23154;52.542;13.362;2023-12-22T08:21:29;5.50;;;1.27;;
37267;SDS011;23154;52.542;13.362;2023-12-22T08:23:55;13.68;;;2.83;;
37267;SDS011;23154;52.542;13.362;2023-12-22T08:26:21;10.02;;;3.08;;
37267;SDS011;23154;52.542;13.362;2023-12-22T08:28:47;7.85;;;1.83;;
37267;SDS011;23154;52.542;13.362;2023-12-22T08:31:13;7.63;;;2.17;;
37267;SDS011;23154;52.542;13.362;2023-12-22T08:33:39;6.90;;;1.70;;
37267;SDS011;23154;52.542;13.362;2023-12-22T08:36:08;10.20;;;2.20;;
37267;SDS011;23154;52.542;13.362;2023-12-22T08:38:34;15.30;;;2.15;;
37267;SDS011;23154;52.542;13.362;2023-12-22T08:41:01;4.15;;;1.75;;
37267;SDS011;23154;52.542;13.362;2023-12-22T08:43:27;14.30;;;2.60;;
37267;SDS011;23154;52.542;13.362;2023-12-22T08:45:53;12.57;;;2.45;;
37267;SDS011;23154;52.542;13.362;2023-12-22T08:48:20;12.90;;;2.80;;
37267;SDS011;23154;52.542;13.362;2023-12-22T08:50:46;15.07;;;2.50;;
37267;SDS011;23154;52.542;13.362;2023-12-22T08:53:12;11.15;;;2.50;;
37267;SDS011;23154;52.542;13.362;2023-12-22T08:55:38;15.70;;;2.53;;
37267;SDS011;23154;52.542;13.362;2023-12-22T08:58:04;19.15;;;3.10;;
37267;SDS011;23154;52.542;13.362;2023-12-22T09:00:30;21.13;;;2.95;;
37267;SDS011;23154;52.542;13.362;2023-12-22T09:02:56;16.65;;;2.40;;
37267;SDS011;23154;52.542;13.362;2023-12-22T09:05:22;20.88;;;3.28;;
37267;SDS011;23154;52.542;13.362;2023-12-22T09:07:48;19.92;;;2.88;;
37267;SDS011;23154;52.542;13.362;2023-12-22T09:10:14;18.02;;;3.42;;
37267;SDS011;23154;52.542;13.362;2023-12-22T09:12:40;12.52;;;2.58;;
37267;SDS011;23154;52.542;13.362;2023-12-22T09:15:07;13.05;;;2.53;;
37267;SDS011;23154;52.542;13.362;2023-12-22T09:17:33;20.20;;;3.67;;
37267;SDS011;23154;52.542;13.362;2023-12-22T09:19:59;17.63;;;3.00;;
37267;SDS011;23154;52.542;13.362;2023-12-22T09:22:25;12.55;;;2.47;;
37267;SDS011;23154;52.542;13.362;2023-12-22T09:24:51;16.88;;;3.22;;
37267;SDS011;23154;52.542;13.362;2023-12-22T09:27:17;21.27;;;2.90;;
37267;SDS011;23154;52.542;13.362;2023-12-22T09:29:44;19.20;;;3.05;;
37267;SDS011;23154;52.542;13.362;2023-12-22T09:32:10;17.00;;;2.85;;
37267;SDS011;23154;52.542;13.362;2023-12-22T09:34:36;20.83;;;3.92;;
37267;SDS011;23154;52.542;13.362;2023-12-22T09:37:04;22.42;;;4.10;;
37267;SDS011;23154;52.542;13.362;2023-12-22T09:39:30;20.17;;;3.45;;
37267;SDS011;23154;52.542;13.362;2023-12-22T09:41:56;19.20;;;3.35;;
37267;SDS011;23154;52.542;13.362;2023-12-22T09:44:22;15.18;;;3.42;;
37267;SDS011;23154;52.542;13.362;2023-12-22T09:46:48;16.42;;;2.90;;
37267;SDS011;23154;52.542;13.362;2023-12-22T09:49:17;20.20;;;3.28;;
37267;SDS011;23154;52.542;13.362;2023-12-22T09:51:45;24.25;;;4.60;;
37267;SDS011;23154;52.542;13.362;2023-12-22T09:54:11;19.58;;;3.60;;
37267;SDS011;23154;52.542;13.362;2023-12-22T09:56:37;19.38;;;3.40;;
37267;SDS011;23154;52.542;13.362;2023-12-22T10:01:33;21.42;;;4.65;;
37267;SDS011;23154;52.542;13.362;2023-12-22T10:04:00;22.05;;;3.45;;
37267;SDS011;23154;52.542;13.362;2023-12-22T10:06:26;42.95;;;4.60;;
37267;SDS011;23154;52.542;13.362;2023-12-22T10:08:53;18.25;;;3.42;;
37267;SDS011;23154;52.542;13.362;2023-12-22T10:11:19;24.88;;;4.22;;
37267;SDS011;23154;52.542;13.362;2023-12-22T10:13:46;26.23;;;3.80;;
37267;SDS011;23154;52.542;13.362;2023-12-22T10:16:14;21.17;;;3.45;;
37267;SDS011;23154;52.542;13.362;2023-12-22T10:18:40;22.33;;;3.97;;
37267;SDS011;23154;52.542;13.362;2023-12-22T10:21:06;24.65;;;4.40;;
37267;SDS011;23154;52.542;13.362;2023-12-22T10:23:32;25.88;;;4.20;;
37267;SDS011;23154;52.542;13.362;2023-12-22T10:25:58;21.00;;;4.15;;
37267;SDS011;23154;52.542;13.362;2023-12-22T10:28:27;17.92;;;3.80;;
37267;SDS011;23154;52.542;13.362;2023-12-22T10:30:53;22.55;;;4.32;;
37267;SDS011;23154;52.542;13.362;2023-12-22T10:33:21;20.13;;;4.07;;
37267;SDS011;23154;52.542;13.362;2023-12-22T10:35:47;19.10;;;3.17;;
37267;SDS011;23154;52.542;13.362;2023-12-22T10:38:17;20.10;;;4.53;;
37267;SDS011;23154;52.542;13.362;2023-12-22T10:40:44;23.98;;;4.68;;
37267;SDS011;23154;52.542;13.362;2023-12-22T10:43:12;24.27;;;4.57;;
37267;SDS011;23154;52.542;13.362;2023-12-22T10:45:39;20.05;;;4.93;;
37267;SDS011;23154;52.542;13.362;2023-12-22T10:48:06;23.15;;;4.40;;
37267;SDS011;23154;52.542;13.362;2023-12-22T10:50:33;28.02;;;4.32;;
37267;SDS011;23154;52.542;13.362;2023-12-22T10:53:00;25.45;;;4.63;;
37267;SDS011;23154;52.542;13.362;2023-12-22T10:55:26;27.20;;;5.35;;
37267;SDS011;23154;52.542;13.362;2023-12-22T10:57:53;25.30;;;4.35;;
37267;SDS011;23154;52.542;13.362;2023-12-22T11:00:19;28.50;;;5.07;;
37267;SDS011;23154;52.542;13.362;2023-12-22T11:02:49;15.35;;;4.03;;
37267;SDS011;23154;52.542;13.362;2023-12-22T11:05:15;17.30;;;3.50;;
37267;SDS011;23154;52.542;13.362;2023-12-22T11:07:48;20.90;;;4.32;;
37267;SDS011;23154;52.542;13.362;2023-12-22T11:10:14;22.20;;;4.13;;
37267;SDS011;23154;52.542;13.362;2023-12-22T11:12:44;14.27;;;3.78;;
37267;SDS011;23154;52.542;13.362;2023-12-22T11:15:12;21.40;;;5.03;;
37267;SDS011;23154;52.542;13.362;2023-12-22T11:17:39;21.23;;;4.72;;
37267;SDS011;23154;52.542;13.362;2023-12-22T11:20:11;22.40;;;4.60;;
37267;SDS011;23154;52.542;13.362;2023-12-22T11:22:38;23.30;;;4.30;;
37267;SDS011;23154;52.542;13.362;2023-12-22T11:25:05;19.13;;;4.25;;
37267;SDS011;23154;52.542;13.362;2023-12-22T11:27:33;16.65;;;4.07;;
37267;SDS011;23154;52.542;13.362;2023-12-22T11:30:00;20.73;;;4.30;;
37267;SDS011;23154;52.542;13.362;2023-12-22T11:32:28;18.35;;;4.25;;
37267;SDS011;23154;52.542;13.362;2023-12-22T11:34:54;17.00;;;3.92;;
37267;SDS011;23154;52.542;13.362;2023-12-22T11:37:22;17.13;;;3.58;;
37267;SDS011;23154;52.542;13.362;2023-12-22T11:39:48;21.75;;;4.57;;
37267;SDS011;23154;52.542;13.362;2023-12-22T11:42:19;14.93;;;3.75;;
37267;SDS011;23154;52.542;13.362;2023-12-22T11:44:46;18.75;;;4.65;;
37267;SDS011;23154;52.542;13.362;2023-12-22T11:47:13;22.02;;;3.75;;
37267;SDS011;23154;52.542;13.362;2023-12-22T11:49:40;11.68;;;3.83;;
37267;SDS011;23154;52.542;13.362;2023-12-22T11:52:13;19.95;;;4.40;;
37267;SDS011;23154;52.542;13.362;2023-12-22T11:54:48;22.85;;;4.50;;
37267;SDS011;23154;52.542;13.362;2023-12-22T12:02:47;16.50;;;4.03;;
37267;SDS011;23154;52.542;13.362;2023-12-22T12:05:19;25.67;;;5.45;;
37267;SDS011;23154;52.542;13.362;2023-12-22T12:07:46;18.73;;;4.72;;
37267;SDS011;23154;52.542;13.362;2023-12-22T12:13:04;17.17;;;3.83;;
37267;SDS011;23154;52.542;13.362;2023-12-22T12:15:30;17.48;;;3.90;;
37267;SDS011;23154;52.542;13.362;2023-12-22T12:17:59;21.05;;;4.57;;
37267;SDS011;23154;52.542;13.362;2023-12-22T12:20:27;18.17;;;4.60;;
37267;SDS011;23154;52.542;13.362;2023-12-22T12:22:53;13.80;;;3.83;;
37267;SDS011;23154;52.542;13.362;2023-12-22T12:25:23;18.70;;;4.22;;
37267;SDS011;23154;52.542;13.362;2023-12-22T12:28:05;15.98;;;4.18;;
37267;SDS011;23154;52.542;13.362;2023-12-22T12:30:31;22.90;;;5.00;;
37267;SDS011;23154;52.542;13.362;2023-12-22T12:33:16;22.48;;;4.00;;
37267;SDS011;23154;52.542;13.362;2023-12-22T12:35:43;22.45;;;4.60;;
37267;SDS011;23154;52.542;13.362;2023-12-22T12:38:09;13.10;;;4.50;;
37267;SDS011;23154;52.542;13.362;2023-12-22T12:40:36;19.00;;;3.60;;
37267;SDS011;23154;52.542;13.362;2023-12-22T12:43:05;19.43;;;4.43;;
37267;SDS011;23154;52.542;13.362;2023-12-22T12:45:31;17.83;;;4.10;;
37267;SDS011;23154;52.542;13.362;2023-12-22T12:48:00;17.52;;;4.10;;
37267;SDS011;23154;52.542;13.362;2023-12-22T12:50:27;19.27;;;4.85;;
37267;SDS011;23154;52.542;13.362;2023-12-22T12:52:59;21.42;;;4.03;;
37267;SDS011;23154;52.542;13.362;2023-12-22T12:55:26;22.17;;;4.45;;
37267;SDS011;23154;52.542;13.362;2023-12-22T12:57:52;16.35;;;3.70;;
37267;SDS011;23154;52.542;13.362;2023-12-22T13:00:25;23.17;;;4.88;;
37267;SDS011;23154;52.542;13.362;2023-12-22T13:02:53;20.95;;;3.72;;
37267;SDS011;23154;52.542;13.362;2023-12-22T13:05:23;19.88;;;4.45;;
37267;SDS011;23154;52.542;13.362;2023-12-22T13:07:50;22.33;;;3.97;;
37267;SDS011;23154;52.542;13.362;2023-12-22T13:10:20;23.88;;;4.43;;
37267;SDS011;23154;52.542;13.362;2023-12-22T13:12:46;21.45;;;4.15;;
37267;SDS011;23154;52.542;13.362;2023-12-22T13:15:12;23.00;;;5.40;;
37267;SDS011;23154;52.542;13.362;2023-12-22T13:17:38;21.35;;;4.18;;
37267;SDS011;23154;52.542;13.362;2023-12-22T13:20:05;23.70;;;4.45;;
37267;SDS011;23154;52.542;13.362;2023-12-22T13:22:32;17.52;;;4.13;;
37267;SDS011;23154;52.542;13.362;2023-12-22T13:24:58;18.85;;;4.63;;
37267;SDS011;23154;52.542;13.362;2023-12-22T13:27:25;24.25;;;4.35;;
37267;SDS011;23154;52.542;13.362;2023-12-22T13:29:51;20.90;;;4.25;;
37267;SDS011;23154;52.542;13.362;2023-12-22T13:32:19;19.55;;;4.50;;
37267;SDS011;23154;52.542;13.362;2023-12-22T13:35:03;12.48;;;3.92;;
37267;SDS011;23154;52.542;13.362;2023-12-22T13:37:29;18.88;;;4.35;;
37267;SDS011;23154;52.542;13.362;2023-12-22T13:39:56;22.30;;;4.85;;
37267;SDS011;23154;52.542;13.362;2023-12-22T13:42:23;23.63;;;4.20;;
37267;SDS011;23154;52.542;13.362;2023-12-22T13:44:50;19.35;;;4.35;;
37267;SDS011;23154;52.542;13.362;2023-12-22T13:47:20;20.92;;;3.92;;
37267;SDS011;23154;52.542;13.362;2023-12-22T13:49:48;22.55;;;4.80;;
37267;SDS011;23154;52.542;13.362;2023-12-22T13:52:28;20.98;;;4.00;;
37267;SDS011;23154;52.542;13.362;2023-12-22T13:54:57;20.88;;;3.85;;
37267;SDS011;23154;52.542;13.362;2023-12-22T13:57:26;26.90;;;5.07;;
37267;SDS011;23154;52.542;13.362;2023-12-22T13:59:58;20.55;;;4.70;;
37267;SDS011;23154;52.542;13.362;2023-12-22T14:02:25;15.90;;;3.85;;
37267;SDS011;23154;52.542;13.362;2023-12-22T14:04:51;19.23;;;4.35;;
37267;SDS011;23154;52.542;13.362;2023-12-22T14:07:17;12.82;;;3.38;;
37267;SDS011;23154;52.542;13.362;2023-12-22T14:09:47;24.55;;;6.68;;
37267;SDS011;23154;52.542;13.362;2023-12-22T14:12:13;19.55;;;4.22;;
37267;SDS011;23154;52.542;13.362;2023-12-22T14:14:41;26.42;;;4.40;;
37267;SDS011;23154;52.542;13.362;2023-12-22T14:17:07;24.08;;;4.45;;
37267;SDS011;23154;52.542;13.362;2023-12-22T14:19:34;17.40;;;3.38;;
37267;SDS011;23154;52.542;13.362;2023-12-22T14:22:00;13.63;;;3.70;;
37267;SDS011;23154;52.542;13.362;2023-12-22T14:24:27;16.85;;;4.30;;
37267;SDS011;23154;52.542;13.362;2023-12-22T14:26:53;29.25;;;6.60;;
37267;SDS011;23154;52.542;13.362;2023-12-22T14:29:21;15.82;;;3.70;;
37267;SDS011;23154;52.542;13.362;2023-12-22T14:31:50;15.32;;;3.35;;
37267;SDS011;23154;52.542;13.362;2023-12-22T14:34:16;18.48;;;3.00;;